Cranbrook Airport
CYXC : now visible

Airfield :











YOU CAN JOIN US ON...

 
LOGIN :

Register | Disclaimer

   EN    FR    IT 

 









Legend :    VFR   Marginal VFR   IFR   Intensive IFR   Very Intensive IFR
Visi :
Ceiling :
>= 8 km
>= 3000ft
5 to 8 km
1000 to 3000 ft
1500m to 5 km
500 to 1000 ft
800 to 1500m
200 to 500 ft
< 800m
< 200 ft
Symbols :   Thunderstorms  Fog  Heavy snow  Heavy precipitations  Wind > 20 kt






- Airport Elevation : 3082 ft
- IATA code : YXC


CYXC - Cranbrook

CURRENT METAR :
  • 042300Z 23007KT 200V320 25SM SCT085 BKN240 23/03 A3001 RMK CU3CI3 SLP159 DENSITY ALT 4600FT

EXPIRED METARs :
  • 042200Z 20007KT 180V270 25SM FEW080 SCT130 BKN240 24/04 A3001 RMK CU2AC1CI3 SLP158 DENSITY ALT 4700FT
  • 042100Z 31004KT 260V350 25SM SCT080 BKN140 BKN240 22/03 A3002 RMK CU3AC1CI2 SLP161 DENSITY ALT 4500FT

TAF TAF CYXC
Valid from the 04 at 19:00 until the 05 at 04:00 UTC


041838Z 0419/0504 VRB03KT P6SM SCT070 BKN120 BKN220
TEMPO 0420/0501 P6SM VCTS BKN070CB
BECMG 0421/0423 26010G20KT
FM050100 27008KT P6SM SCT070 SCT120 RMK NXT FCST BY 050100Z
CZVR FIR / North America



MET'MAP, your aeronautical weather chart ! - Copyright ORBIFLY December 2007 - Disclaimer

ORBIFLY MET'MAP TEAM :

Programming & Development : Alexandra Zaïnal
Concept & original design : Baudouin d'Aumeries
Assistance for programming : Marc-Olivier Méhu
Technical & hardware support : Manuel Goepfert

Contact : metmap@orbifly.com




SOURCES & CREDITS :

   NOAA       Earth
Advisory